sensor_id;sensor_type;location;lat;lon;timestamp;pressure;altitude;pressure_sealevel;temperature;humidity
22550;BME280;11441;57.164;-2.120;2022-11-20T00:01:30;100140.22;;;7.72;100.00
22550;BME280;11441;57.164;-2.120;2022-11-20T00:03:58;100111.66;;;7.73;100.00
22550;BME280;11441;57.164;-2.120;2022-11-20T00:06:26;100121.66;;;7.81;100.00
22550;BME280;11441;57.164;-2.120;2022-11-20T00:09:12;100132.03;;;7.88;100.00
22550;BME280;11441;57.164;-2.120;2022-11-20T00:11:39;100119.53;;;7.74;100.00
22550;BME280;11441;57.164;-2.120;2022-11-20T00:14:24;100111.41;;;7.78;100.00
22550;BME280;11441;57.164;-2.120;2022-11-20T00:16:51;100107.88;;;7.78;100.00
22550;BME280;11441;57.164;-2.120;2022-11-20T00:19:17;100109.56;;;7.82;100.00
22550;BME280;11441;57.164;-2.120;2022-11-20T00:21:45;100113.53;;;7.85;100.00
22550;BME280;11441;57.164;-2.120;2022-11-20T00:24:12;100107.72;;;7.86;100.00
22550;BME280;11441;57.164;-2.120;2022-11-20T00:26:39;100102.53;;;7.69;100.00
22550;BME280;11441;57.164;-2.120;2022-11-20T00:29:08;100101.69;;;7.81;100.00
22550;BME280;11441;57.164;-2.120;2022-11-20T00:31:36;100102.72;;;7.76;100.00
22550;BME280;11441;57.164;-2.120;2022-11-20T00:34:03;100107.69;;;7.70;100.00
22550;BME280;11441;57.164;-2.120;2022-11-20T00:36:32;100090.72;;;7.81;100.00
22550;BME280;11441;57.164;-2.120;2022-11-20T00:38:59;100106.22;;;7.89;100.00
22550;BME280;11441;57.164;-2.120;2022-11-20T00:41:28;100093.09;;;7.66;100.00
22550;BME280;11441;57.164;-2.120;2022-11-20T00:43:55;100093.03;;;7.79;100.00
22550;BME280;11441;57.164;-2.120;2022-11-20T00:46:24;100092.19;;;7.78;100.00
22550;BME280;11441;57.164;-2.120;2022-11-20T00:48:52;100103.00;;;7.87;100.00
22550;BME280;11441;57.164;-2.120;2022-11-20T00:51:20;100087.44;;;7.75;100.00
22550;BME280;11441;57.164;-2.120;2022-11-20T00:54:06;100095.09;;;7.69;100.00
22550;BME280;11441;57.164;-2.120;2022-11-20T00:56:33;100080.97;;;7.83;100.00
22550;BME280;11441;57.164;-2.120;2022-11-20T00:59:00;100072.22;;;7.78;100.00
22550;BME280;11441;57.164;-2.120;2022-11-20T01:01:27;100078.34;;;7.87;100.00
22550;BME280;11441;57.164;-2.120;2022-11-20T01:03:59;100073.44;;;7.80;100.00
22550;BME280;11441;57.164;-2.120;2022-11-20T01:06:35;100058.28;;;7.99;100.00
22550;BME280;11441;57.164;-2.120;2022-11-20T01:09:09;100058.25;;;7.83;100.00
22550;BME280;11441;57.164;-2.120;2022-11-20T01:11:39;100046.84;;;7.81;100.00
22550;BME280;11441;57.164;-2.120;2022-11-20T01:14:11;100035.09;;;7.96;100.00
22550;BME280;11441;57.164;-2.120;2022-11-20T01:16:40;100039.16;;;8.02;100.00
22550;BME280;11441;57.164;-2.120;2022-11-20T01:19:11;100031.84;;;8.06;100.00
22550;BME280;11441;57.164;-2.120;2022-11-20T01:21:45;100026.25;;;7.87;100.00
22550;BME280;11441;57.164;-2.120;2022-11-20T01:24:29;100022.44;;;7.91;100.00
22550;BME280;11441;57.164;-2.120;2022-11-20T01:26:56;100031.91;;;7.94;100.00
22550;BME280;11441;57.164;-2.120;2022-11-20T01:29:24;100026.06;;;7.96;100.00
22550;BME280;11441;57.164;-2.120;2022-11-20T01:31:51;100013.69;;;8.02;100.00
22550;BME280;11441;57.164;-2.120;2022-11-20T01:34:20;100022.97;;;7.97;100.00
22550;BME280;11441;57.164;-2.120;2022-11-20T01:36:47;100015.81;;;8.08;100.00
22550;BME280;11441;57.164;-2.120;2022-11-20T01:39:20;100005.91;;;8.04;100.00
22550;BME280;11441;57.164;-2.120;2022-11-20T01:41:49;100018.84;;;8.03;100.00
22550;BME280;11441;57.164;-2.120;2022-11-20T01:44:56;100006.16;;;7.83;100.00
22550;BME280;11441;57.164;-2.120;2022-11-20T01:47:36;100012.34;;;7.96;100.00
22550;BME280;11441;57.164;-2.120;2022-11-20T01:50:12;99994.84;;;8.00;100.00
22550;BME280;11441;57.164;-2.120;2022-11-20T01:52:47;99995.09;;;8.11;100.00
22550;BME280;11441;57.164;-2.120;2022-11-20T01:55:22;99997.06;;;8.10;100.00
22550;BME280;11441;57.164;-2.120;2022-11-20T01:57:52;99987.16;;;8.06;100.00
22550;BME280;11441;57.164;-2.120;2022-11-20T02:00:20;99973.63;;;7.97;100.00
22550;BME280;11441;57.164;-2.120;2022-11-20T02:02:52;99971.13;;;7.92;100.00
22550;BME280;11441;57.164;-2.120;2022-11-20T02:05:27;99972.72;;;8.09;100.00
22550;BME280;11441;57.164;-2.120;2022-11-20T02:07:56;99975.44;;;8.25;100.00
22550;BME280;11441;57.164;-2.120;2022-11-20T02:10:24;99960.16;;;8.08;100.00
22550;BME280;11441;57.164;-2.120;2022-11-20T02:12:52;99966.47;;;8.08;100.00
22550;BME280;11441;57.164;-2.120;2022-11-20T02:15:38;99945.13;;;8.02;100.00
22550;BME280;11441;57.164;-2.120;2022-11-20T02:18:05;99977.44;;;7.92;100.00
22550;BME280;11441;57.164;-2.120;2022-11-20T02:20:32;99968.13;;;7.97;100.00
22550;BME280;11441;57.164;-2.120;2022-11-20T02:23:33;99965.56;;;8.04;100.00
22550;BME280;11441;57.164;-2.120;2022-11-20T02:26:07;99954.59;;;8.04;100.00
22550;BME280;11441;57.164;-2.120;2022-11-20T02:28:35;99950.09;;;8.12;100.00
22550;BME280;11441;57.164;-2.120;2022-11-20T02:31:03;99951.56;;;8.09;100.00
22550;BME280;11441;57.164;-2.120;2022-11-20T02:33:30;99949.84;;;8.01;100.00
22550;BME280;11441;57.164;-2.120;2022-11-20T02:35:56;99956.47;;;8.00;100.00
22550;BME280;11441;57.164;-2.120;2022-11-20T02:38:23;99948.94;;;7.97;100.00
22550;BME280;11441;57.164;-2.120;2022-11-20T02:40:50;99932.72;;;8.08;100.00
22550;BME280;11441;57.164;-2.120;2022-11-20T02:43:22;99944.88;;;8.07;100.00
22550;BME280;11441;57.164;-2.120;2022-11-20T02:45:49;99930.63;;;8.01;100.00
22550;BME280;11441;57.164;-2.120;2022-11-20T02:48:16;99929.34;;;8.15;100.00
22550;BME280;11441;57.164;-2.120;2022-11-20T02:50:42;99928.41;;;8.07;100.00
22550;BME280;11441;57.164;-2.120;2022-11-20T02:53:09;99914.47;;;7.96;100.00
22550;BME280;11441;57.164;-2.120;2022-11-20T02:55:36;99916.19;;;8.04;100.00
22550;BME280;11441;57.164;-2.120;2022-11-20T02:58:03;99915.28;;;8.16;100.00
22550;BME280;11441;57.164;-2.120;2022-11-20T03:00:30;99905.56;;;8.03;100.00
22550;BME280;11441;57.164;-2.120;2022-11-20T03:02:58;99907.41;;;8.15;100.00
22550;BME280;11441;57.164;-2.120;2022-11-20T03:05:25;99904.53;;;8.27;100.00
22550;BME280;11441;57.164;-2.120;2022-11-20T03:07:51;99898.63;;;8.25;100.00
22550;BME280;11441;57.164;-2.120;2022-11-20T03:10:18;99898.59;;;8.05;100.00
22550;BME280;11441;57.164;-2.120;2022-11-20T03:12:45;99887.22;;;8.23;100.00
22550;BME280;11441;57.164;-2.120;2022-11-20T03:15:12;99889.59;;;8.05;100.00
22550;BME280;11441;57.164;-2.120;2022-11-20T03:17:38;99866.25;;;7.95;100.00
22550;BME280;11441;57.164;-2.120;2022-11-20T03:20:06;99869.78;;;7.96;100.00
22550;BME280;11441;57.164;-2.120;2022-11-20T03:22:33;99861.50;;;8.11;100.00
22550;BME280;11441;57.164;-2.120;2022-11-20T03:25:00;99859.56;;;8.12;100.00
22550;BME280;11441;57.164;-2.120;2022-11-20T03:27:26;99845.03;;;8.11;100.00
22550;BME280;11441;57.164;-2.120;2022-11-20T03:29:53;99858.97;;;8.03;100.00
22550;BME280;11441;57.164;-2.120;2022-11-20T03:32:20;99854.44;;;8.10;100.00
22550;BME280;11441;57.164;-2.120;2022-11-20T03:34:46;99839.19;;;8.13;100.00
22550;BME280;11441;57.164;-2.120;2022-11-20T03:37:13;99850.44;;;8.24;100.00
22550;BME280;11441;57.164;-2.120;2022-11-20T03:39:40;99835.38;;;8.18;100.00
22550;BME280;11441;57.164;-2.120;2022-11-20T03:42:08;99834.69;;;8.21;100.00
22550;BME280;11441;57.164;-2.120;2022-11-20T03:44:55;99832.22;;;8.16;100.00
22550;BME280;11441;57.164;-2.120;2022-11-20T03:47:21;99830.38;;;8.04;100.00
22550;BME280;11441;57.164;-2.120;2022-11-20T03:49:48;99838.28;;;8.25;100.00
22550;BME280;11441;57.164;-2.120;2022-11-20T03:52:15;99829.13;;;8.17;100.00
22550;BME280;11441;57.164;-2.120;2022-11-20T03:54:42;99838.50;;;8.16;100.00
22550;BME280;11441;57.164;-2.120;2022-11-20T03:57:09;99829.03;;;8.14;100.00
22550;BME280;11441;57.164;-2.120;2022-11-20T03:59:36;99846.69;;;7.97;100.00
22550;BME280;11441;57.164;-2.120;2022-11-20T04:02:02;99827.16;;;7.98;100.00
22550;BME280;11441;57.164;-2.120;2022-11-20T04:04:29;99842.19;;;7.88;100.00
22550;BME280;11441;57.164;-2.120;2022-11-20T04:06:56;99831.50;;;7.83;100.00
22550;BME280;11441;57.164;-2.120;2022-11-20T04:09:23;99855.84;;;7.69;100.00
22550;BME280;11441;57.164;-2.120;2022-11-20T04:11:50;99833.34;;;7.44;100.00
22550;BME280;11441;57.164;-2.120;2022-11-20T04:14:17;99825.31;;;7.35;100.00
22550;BME280;11441;57.164;-2.120;2022-11-20T04:16:43;99824.59;;;7.38;100.00
22550;BME280;11441;57.164;-2.120;2022-11-20T04:19:13;99832.88;;;7.42;100.00
22550;BME280;11441;57.164;-2.120;2022-11-20T04:21:41;99823.34;;;7.51;100.00
22550;BME280;11441;57.164;-2.120;2022-11-20T04:24:08;99831.38;;;7.60;100.00
22550;BME280;11441;57.164;-2.120;2022-11-20T04:26:35;99826.97;;;7.40;100.00
22550;BME280;11441;57.164;-2.120;2022-11-20T04:29:02;99818.41;;;7.41;100.00
22550;BME280;11441;57.164;-2.120;2022-11-20T04:31:33;99834.22;;;7.32;100.00
22550;BME280;11441;57.164;-2.120;2022-11-20T04:34:18;99822.72;;;7.10;100.00
22550;BME280;11441;57.164;-2.120;2022-11-20T04:36:45;99815.94;;;6.88;100.00
22550;BME280;11441;57.164;-2.120;2022-11-20T04:39:13;99816.53;;;6.97;100.00
22550;BME280;11441;57.164;-2.120;2022-11-20T04:41:41;99811.94;;;6.86;100.00
22550;BME280;11441;57.164;-2.120;2022-11-20T04:44:08;99816.59;;;6.69;100.00
22550;BME280;11441;57.164;-2.120;2022-11-20T04:46:40;99819.78;;;6.71;100.00
22550;BME280;11441;57.164;-2.120;2022-11-20T04:49:12;99801.63;;;6.51;100.00
22550;BME280;11441;57.164;-2.120;2022-11-20T04:51:39;99820.19;;;6.57;100.00
22550;BME280;11441;57.164;-2.120;2022-11-20T04:54:06;99802.63;;;6.58;100.00
22550;BME280;11441;57.164;-2.120;2022-11-20T04:56:51;99802.09;;;6.69;100.00
22550;BME280;11441;57.164;-2.120;2022-11-20T04:59:18;99804.41;;;6.67;100.00
22550;BME280;11441;57.164;-2.120;2022-11-20T05:01:46;99795.34;;;6.78;100.00
22550;BME280;11441;57.164;-2.120;2022-11-20T05:04:13;99794.19;;;6.79;100.00
22550;BME280;11441;57.164;-2.120;2022-11-20T05:06:39;99793.63;;;6.74;100.00
22550;BME280;11441;57.164;-2.120;2022-11-20T05:09:06;99801.84;;;6.74;100.00
22550;BME280;11441;57.164;-2.120;2022-11-20T05:11:33;99797.72;;;6.80;100.00
22550;BME280;11441;57.164;-2.120;2022-11-20T05:14:18;99803.00;;;6.73;100.00
22550;BME280;11441;57.164;-2.120;2022-11-20T05:16:45;99795.88;;;6.84;100.00
22550;BME280;11441;57.164;-2.120;2022-11-20T05:19:12;99784.47;;;6.82;100.00
22550;BME280;11441;57.164;-2.120;2022-11-20T05:21:39;99781.03;;;6.85;100.00
22550;BME280;11441;57.164;-2.120;2022-11-20T05:24:05;99779.09;;;6.86;100.00
22550;BME280;11441;57.164;-2.120;2022-11-20T05:26:33;99780.34;;;6.88;100.00
22550;BME280;11441;57.164;-2.120;2022-11-20T05:29:00;99780.44;;;6.92;100.00
22550;BME280;11441;57.164;-2.120;2022-11-20T05:31:27;99761.88;;;6.85;100.00
22550;BME280;11441;57.164;-2.120;2022-11-20T05:33:55;99787.47;;;6.93;100.00
22550;BME280;11441;57.164;-2.120;2022-11-20T05:36:23;99775.41;;;6.94;100.00
22550;BME280;11441;57.164;-2.120;2022-11-20T05:38:50;99773.00;;;6.92;100.00
22550;BME280;11441;57.164;-2.120;2022-11-20T05:41:21;99776.44;;;6.73;100.00
22550;BME280;11441;57.164;-2.120;2022-11-20T05:43:49;99772.91;;;6.73;100.00
22550;BME280;11441;57.164;-2.120;2022-11-20T05:46:18;99759.31;;;6.92;100.00
22550;BME280;11441;57.164;-2.120;2022-11-20T05:48:53;99771.03;;;6.77;100.00
22550;BME280;11441;57.164;-2.120;2022-11-20T05:51:21;99754.03;;;6.84;100.00
22550;BME280;11441;57.164;-2.120;2022-11-20T05:53:47;99746.41;;;6.77;100.00
22550;BME280;11441;57.164;-2.120;2022-11-20T05:56:18;99734.84;;;6.68;100.00
22550;BME280;11441;57.164;-2.120;2022-11-20T05:58:46;99742.63;;;6.66;100.00
22550;BME280;11441;57.164;-2.120;2022-11-20T06:01:16;99745.28;;;6.78;100.00
22550;BME280;11441;57.164;-2.120;2022-11-20T06:03:44;99750.66;;;6.74;100.00
22550;BME280;11441;57.164;-2.120;2022-11-20T06:06:15;99751.53;;;6.78;100.00
22550;BME280;11441;57.164;-2.120;2022-11-20T06:08:42;99750.09;;;6.53;100.00
22550;BME280;11441;57.164;-2.120;2022-11-20T06:11:11;99738.53;;;6.59;100.00
22550;BME280;11441;57.164;-2.120;2022-11-20T06:13:57;99740.25;;;6.64;100.00
22550;BME280;11441;57.164;-2.120;2022-11-20T06:16:42;99739.88;;;6.66;100.00
22550;BME280;11441;57.164;-2.120;2022-11-20T06:19:28;99736.34;;;6.65;100.00
22550;BME280;11441;57.164;-2.120;2022-11-20T06:21:55;99744.63;;;6.69;100.00
22550;BME280;11441;57.164;-2.120;2022-11-20T06:24:21;99742.19;;;6.64;100.00
22550;BME280;11441;57.164;-2.120;2022-11-20T06:26:49;99727.09;;;6.70;100.00
22550;BME280;11441;57.164;-2.120;2022-11-20T06:29:15;99726.47;;;6.60;100.00
22550;BME280;11441;57.164;-2.120;2022-11-20T06:31:42;99724.34;;;6.70;100.00
22550;BME280;11441;57.164;-2.120;2022-11-20T06:34:09;99720.75;;;6.66;100.00
22550;BME280;11441;57.164;-2.120;2022-11-20T06:36:36;99727.84;;;6.54;100.00
22550;BME280;11441;57.164;-2.120;2022-11-20T06:39:03;99714.34;;;6.61;100.00
22550;BME280;11441;57.164;-2.120;2022-11-20T06:41:29;99711.09;;;6.72;100.00
22550;BME280;11441;57.164;-2.120;2022-11-20T06:44:19;99713.66;;;6.65;100.00
22550;BME280;11441;57.164;-2.120;2022-11-20T06:47:05;99711.97;;;6.60;100.00
22550;BME280;11441;57.164;-2.120;2022-11-20T06:49:50;99717.34;;;6.56;100.00
22550;BME280;11441;57.164;-2.120;2022-11-20T06:52:17;99720.19;;;6.60;100.00
22550;BME280;11441;57.164;-2.120;2022-11-20T06:54:44;99711.44;;;6.54;100.00
22550;BME280;11441;57.164;-2.120;2022-11-20T06:57:11;99703.59;;;6.53;100.00
22550;BME280;11441;57.164;-2.120;2022-11-20T06:59:37;99710.94;;;6.65;100.00
22550;BME280;11441;57.164;-2.120;2022-11-20T07:02:04;99704.56;;;6.60;100.00
22550;BME280;11441;57.164;-2.120;2022-11-20T07:04:31;99709.34;;;6.64;100.00
22550;BME280;11441;57.164;-2.120;2022-11-20T07:06:58;99713.03;;;6.55;100.00
22550;BME280;11441;57.164;-2.120;2022-11-20T07:09:25;99713.84;;;6.56;100.00
22550;BME280;11441;57.164;-2.120;2022-11-20T07:11:52;99722.66;;;6.65;100.00
22550;BME280;11441;57.164;-2.120;2022-11-20T07:14:19;99721.88;;;6.65;100.00
22550;BME280;11441;57.164;-2.120;2022-11-20T07:16:46;99712.59;;;6.53;100.00
22550;BME280;11441;57.164;-2.120;2022-11-20T07:19:13;99715.94;;;6.47;100.00
22550;BME280;11441;57.164;-2.120;2022-11-20T07:21:39;99715.88;;;6.59;100.00
22550;BME280;11441;57.164;-2.120;2022-11-20T07:24:06;99711.44;;;6.38;100.00
22550;BME280;11441;57.164;-2.120;2022-11-20T07:26:51;99708.19;;;6.49;100.00
22550;BME280;11441;57.164;-2.120;2022-11-20T07:29:17;99710.13;;;6.48;100.00
22550;BME280;11441;57.164;-2.120;2022-11-20T07:32:03;99710.66;;;6.54;100.00
22550;BME280;11441;57.164;-2.120;2022-11-20T07:34:30;99715.34;;;6.53;100.00
22550;BME280;11441;57.164;-2.120;2022-11-20T07:36:57;99704.41;;;6.53;100.00
22550;BME280;11441;57.164;-2.120;2022-11-20T07:39:24;99703.59;;;6.53;100.00
22550;BME280;11441;57.164;-2.120;2022-11-20T07:41:50;99701.28;;;6.39;100.00
22550;BME280;11441;57.164;-2.120;2022-11-20T07:44:17;99705.44;;;6.49;100.00
22550;BME280;11441;57.164;-2.120;2022-11-20T07:46:44;99714.09;;;6.51;100.00
22550;BME280;11441;57.164;-2.120;2022-11-20T07:49:11;99711.16;;;6.28;100.00
22550;BME280;11441;57.164;-2.120;2022-11-20T07:51:50;99699.53;;;6.31;100.00
22550;BME280;11441;57.164;-2.120;2022-11-20T07:54:18;99669.09;;;6.04;100.00
22550;BME280;11441;57.164;-2.120;2022-11-20T07:56:44;99696.78;;;6.31;100.00
22550;BME280;11441;57.164;-2.120;2022-11-20T07:59:28;99688.94;;;6.45;100.00
22550;BME280;11441;57.164;-2.120;2022-11-20T08:02:31;99686.81;;;6.38;100.00
22550;BME280;11441;57.164;-2.120;2022-11-20T08:04:58;99685.50;;;6.48;100.00
22550;BME280;11441;57.164;-2.120;2022-11-20T08:07:43;99687.81;;;6.46;100.00
22550;BME280;11441;57.164;-2.120;2022-11-20T08:10:14;99671.53;;;6.37;100.00
22550;BME280;11441;57.164;-2.120;2022-11-20T08:12:50;99688.25;;;6.48;100.00
22550;BME280;11441;57.164;-2.120;2022-11-20T08:15:36;99686.28;;;6.49;100.00
22550;BME280;11441;57.164;-2.120;2022-11-20T08:18:11;99686.66;;;6.63;100.00
22550;BME280;11441;57.164;-2.120;2022-11-20T08:21:02;99681.78;;;6.40;100.00
22550;BME280;11441;57.164;-2.120;2022-11-20T08:23:48;99678.06;;;6.33;100.00
22550;BME280;11441;57.164;-2.120;2022-11-20T08:26:14;99670.75;;;6.53;100.00
22550;BME280;11441;57.164;-2.120;2022-11-20T08:28:41;99682.94;;;6.39;100.00
22550;BME280;11441;57.164;-2.120;2022-11-20T08:31:08;99682.28;;;6.30;100.00
22550;BME280;11441;57.164;-2.120;2022-11-20T08:33:36;99687.94;;;6.37;100.00
22550;BME280;11441;57.164;-2.120;2022-11-20T08:36:22;99696.53;;;6.52;100.00
22550;BME280;11441;57.164;-2.120;2022-11-20T08:38:51;99684.09;;;6.54;100.00
22550;BME280;11441;57.164;-2.120;2022-11-20T08:41:19;99689.72;;;6.30;100.00
22550;BME280;11441;57.164;-2.120;2022-11-20T08:43:58;99689.19;;;6.40;100.00
22550;BME280;11441;57.164;-2.120;2022-11-20T08:46:44;99693.16;;;6.42;100.00
22550;BME280;11441;57.164;-2.120;2022-11-20T08:49:13;99686.44;;;6.24;100.00
22550;BME280;11441;57.164;-2.120;2022-11-20T08:51:41;99677.72;;;6.18;100.00
22550;BME280;11441;57.164;-2.120;2022-11-20T08:54:08;99670.22;;;6.31;100.00
22550;BME280;11441;57.164;-2.120;2022-11-20T08:56:35;99676.88;;;6.46;100.00
22550;BME280;11441;57.164;-2.120;2022-11-20T08:59:02;99672.53;;;6.45;100.00
22550;BME280;11441;57.164;-2.120;2022-11-20T09:04:53;99673.84;;;6.51;100.00
22550;BME280;11441;57.164;-2.120;2022-11-20T09:07:20;99671.44;;;6.34;100.00
22550;BME280;11441;57.164;-2.120;2022-11-20T09:09:47;99667.13;;;6.33;100.00
22550;BME280;11441;57.164;-2.120;2022-11-20T09:12:34;99663.25;;;6.34;100.00
22550;BME280;11441;57.164;-2.120;2022-11-20T09:15:01;99667.50;;;6.47;100.00
22550;BME280;11441;57.164;-2.120;2022-11-20T09:17:27;99667.84;;;6.30;100.00
22550;BME280;11441;57.164;-2.120;2022-11-20T09:19:54;99659.88;;;6.25;100.00
22550;BME280;11441;57.164;-2.120;2022-11-20T09:22:21;99657.44;;;6.51;100.00
22550;BME280;11441;57.164;-2.120;2022-11-20T09:24:48;99665.97;;;6.34;100.00
22550;BME280;11441;57.164;-2.120;2022-11-20T09:27:15;99657.00;;;6.33;100.00
22550;BME280;11441;57.164;-2.120;2022-11-20T09:30:05;99654.41;;;6.25;100.00
22550;BME280;11441;57.164;-2.120;2022-11-20T09:32:32;99641.34;;;6.34;100.00
22550;BME280;11441;57.164;-2.120;2022-11-20T09:34:59;99647.91;;;6.45;100.00
22550;BME280;11441;57.164;-2.120;2022-11-20T09:37:30;99634.31;;;6.49;100.00
22550;BME280;11441;57.164;-2.120;2022-11-20T09:39:57;99636.44;;;6.55;100.00
22550;BME280;11441;57.164;-2.120;2022-11-20T09:50:36;99631.38;;;6.73;100.00
22550;BME280;11441;57.164;-2.120;2022-11-20T09:53:12;99638.91;;;6.76;100.00
22550;BME280;11441;57.164;-2.120;2022-11-20T09:55:40;99626.63;;;6.86;100.00
22550;BME280;11441;57.164;-2.120;2022-11-20T09:58:14;99626.72;;;6.90;100.00
22550;BME280;11441;57.164;-2.120;2022-11-20T10:00:43;99627.56;;;6.94;100.00
22550;BME280;11441;57.164;-2.120;2022-11-20T10:03:17;99622.56;;;6.80;100.00
22550;BME280;11441;57.164;-2.120;2022-11-20T10:05:53;99625.56;;;6.75;100.00
22550;BME280;11441;57.164;-2.120;2022-11-20T10:08:23;99623.88;;;6.70;100.00
22550;BME280;11441;57.164;-2.120;2022-11-20T10:30:03;99594.31;;;6.76;100.00
22550;BME280;11441;57.164;-2.120;2022-11-20T10:32:43;99598.03;;;6.68;100.00
22550;BME280;11441;57.164;-2.120;2022-11-20T10:35:18;99591.81;;;6.87;100.00
22550;BME280;11441;57.164;-2.120;2022-11-20T10:37:51;99603.16;;;7.05;100.00
22550;BME280;11441;57.164;-2.120;2022-11-20T10:40:26;99604.41;;;7.07;100.00
22550;BME280;11441;57.164;-2.120;2022-11-20T10:43:12;99589.03;;;7.03;100.00
22550;BME280;11441;57.164;-2.120;2022-11-20T10:46:00;99584.28;;;6.99;100.00
22550;BME280;11441;57.164;-2.120;2022-11-20T10:48:48;99584.28;;;7.19;100.00
22550;BME280;11441;57.164;-2.120;2022-11-20T10:52:04;99586.75;;;7.05;100.00
22550;BME280;11441;57.164;-2.120;2022-11-20T10:54:25;99579.84;;;7.11;100.00
22550;BME280;11441;57.164;-2.120;2022-11-20T10:57:00;99585.94;;;7.04;100.00
22550;BME280;11441;57.164;-2.120;2022-11-20T11:02:39;99576.91;;;7.20;100.00
22550;BME280;11441;57.164;-2.120;2022-11-20T11:08:22;99570.47;;;7.12;100.00
22550;BME280;11441;57.164;-2.120;2022-11-20T11:10:59;99571.91;;;7.06;100.00
22550;BME280;11441;57.164;-2.120;2022-11-20T11:13:30;99583.66;;;7.06;100.00
22550;BME280;11441;57.164;-2.120;2022-11-20T11:15:57;99575.94;;;7.12;100.00
22550;BME280;11441;57.164;-2.120;2022-11-20T11:18:33;99569.81;;;7.18;100.00
22550;BME280;11441;57.164;-2.120;2022-11-20T11:27:14;99570.59;;;7.19;100.00
22550;BME280;11441;57.164;-2.120;2022-11-20T11:29:45;99563.78;;;7.29;100.00
22550;BME280;11441;57.164;-2.120;2022-11-20T11:32:18;99564.06;;;7.43;100.00
22550;BME280;11441;57.164;-2.120;2022-11-20T11:35:05;99567.16;;;7.42;100.00
22550;BME280;11441;57.164;-2.120;2022-11-20T11:37:34;99571.50;;;7.43;100.00
22550;BME280;11441;57.164;-2.120;2022-11-20T11:40:03;99574.88;;;7.36;100.00
22550;BME280;11441;57.164;-2.120;2022-11-20T11:42:55;99563.28;;;7.43;100.00
22550;BME280;11441;57.164;-2.120;2022-11-20T11:45:23;99567.38;;;7.33;100.00
22550;BME280;11441;57.164;-2.120;2022-11-20T11:47:51;99565.81;;;7.32;100.00
22550;BME280;11441;57.164;-2.120;2022-11-20T11:50:24;99558.88;;;7.38;100.00
22550;BME280;11441;57.164;-2.120;2022-11-20T11:55:46;99558.28;;;7.48;100.00
22550;BME280;11441;57.164;-2.120;2022-11-20T12:01:17;99560.59;;;7.46;100.00
22550;BME280;11441;57.164;-2.120;2022-11-20T12:06:31;99553.47;;;7.61;100.00
22550;BME280;11441;57.164;-2.120;2022-11-20T12:09:02;99554.53;;;7.57;100.00
22550;BME280;11441;57.164;-2.120;2022-11-20T12:11:43;99558.47;;;7.59;100.00
22550;BME280;11441;57.164;-2.120;2022-11-20T12:14:19;99556.56;;;7.60;100.00
22550;BME280;11441;57.164;-2.120;2022-11-20T12:16:51;99555.09;;;7.66;100.00
22550;BME280;11441;57.164;-2.120;2022-11-20T12:19:19;99555.31;;;7.57;100.00
22550;BME280;11441;57.164;-2.120;2022-11-20T12:30:11;99558.38;;;7.95;100.00
22550;BME280;11441;57.164;-2.120;2022-11-20T12:43:37;99548.22;;;8.22;100.00
22550;BME280;11441;57.164;-2.120;2022-11-20T12:54:53;99529.03;;;8.45;100.00
22550;BME280;11441;57.164;-2.120;2022-11-20T12:57:37;99542.31;;;8.43;100.00
22550;BME280;11441;57.164;-2.120;2022-11-20T13:00:33;99542.53;;;8.34;100.00
22550;BME280;11441;57.164;-2.120;2022-11-20T13:06:18;99546.78;;;8.28;100.00
22550;BME280;11441;57.164;-2.120;2022-11-20T13:08:52;99535.47;;;8.56;100.00
22550;BME280;11441;57.164;-2.120;2022-11-20T13:14:26;99539.66;;;8.46;100.00
22550;BME280;11441;57.164;-2.120;2022-11-20T13:17:05;99540.72;;;8.42;100.00
22550;BME280;11441;57.164;-2.120;2022-11-20T13:19:36;99536.38;;;8.41;100.00
22550;BME280;11441;57.164;-2.120;2022-11-20T13:22:03;99539.06;;;8.37;100.00
22550;BME280;11441;57.164;-2.120;2022-11-20T13:24:31;99530.97;;;8.44;100.00
22550;BME280;11441;57.164;-2.120;2022-11-20T13:29:33;99544.81;;;8.52;100.00
22550;BME280;11441;57.164;-2.120;2022-11-20T13:32:21;99542.16;;;8.55;100.00
22550;BME280;11441;57.164;-2.120;2022-11-20T13:35:01;99549.50;;;8.51;100.00
22550;BME280;11441;57.164;-2.120;2022-11-20T13:37:33;99545.34;;;8.61;100.00
22550;BME280;11441;57.164;-2.120;2022-11-20T13:42:44;99551.06;;;8.48;100.00
22550;BME280;11441;57.164;-2.120;2022-11-20T13:47:51;99577.75;;;8.52;100.00
22550;BME280;11441;57.164;-2.120;2022-11-20T13:50:18;99568.72;;;8.51;100.00
22550;BME280;11441;57.164;-2.120;2022-11-20T13:52:52;99565.91;;;8.47;100.00
22550;BME280;11441;57.164;-2.120;2022-11-20T13:55:42;99581.19;;;8.45;100.00
22550;BME280;11441;57.164;-2.120;2022-11-20T13:58:48;99578.84;;;8.24;100.00
22550;BME280;11441;57.164;-2.120;2022-11-20T14:01:17;99584.41;;;8.27;100.00
22550;BME280;11441;57.164;-2.120;2022-11-20T14:03:47;99582.59;;;8.39;100.00
22550;BME280;11441;57.164;-2.120;2022-11-20T14:06:45;99577.81;;;8.55;100.00
22550;BME280;11441;57.164;-2.120;2022-11-20T14:09:26;99583.22;;;8.52;100.00
22550;BME280;11441;57.164;-2.120;2022-11-20T14:11:53;99576.47;;;8.45;100.00
22550;BME280;11441;57.164;-2.120;2022-11-20T14:14:47;99586.03;;;8.32;100.00
22550;BME280;11441;57.164;-2.120;2022-11-20T14:17:34;99583.22;;;8.52;100.00
22550;BME280;11441;57.164;-2.120;2022-11-20T14:20:06;99580.72;;;8.43;100.00
22550;BME280;11441;57.164;-2.120;2022-11-20T14:22:38;99585.28;;;8.35;100.00
22550;BME280;11441;57.164;-2.120;2022-11-20T14:27:49;99594.25;;;8.09;100.00
22550;BME280;11441;57.164;-2.120;2022-11-20T14:30:19;99597.59;;;7.99;100.00
22550;BME280;11441;57.164;-2.120;2022-11-20T14:33:05;99591.53;;;8.09;100.00
22550;BME280;11441;57.164;-2.120;2022-11-20T14:35:37;99588.78;;;8.09;100.00
22550;BME280;11441;57.164;-2.120;2022-11-20T14:38:10;99590.44;;;7.94;100.00
22550;BME280;11441;57.164;-2.120;2022-11-20T14:40:38;99580.66;;;7.93;100.00
22550;BME280;11441;57.164;-2.120;2022-11-20T14:43:25;99579.59;;;7.78;100.00
22550;BME280;11441;57.164;-2.120;2022-11-20T14:46:02;99576.06;;;7.78;100.00
22550;BME280;11441;57.164;-2.120;2022-11-20T14:48:40;99592.94;;;7.80;100.00